Time;durP1;ratioP1;P1;durP2;ratioP2;P2;SDS_P1;SDS_P2;PMS_P1;PMS_P2;Temp;Humidity;BMP_temperature;BMP_pressure;BME280_temperature;BME280_humidity;BME280_pressure;Samples;Min_cycle;Max_cycle;Signal;HPM_P1;HPM_P2
2023/02/06 00:01:49;;;;;;;29.20;4.65;;;1.40;99.90;;;;;;4996156;28;20124;-66
2023/02/06 00:04:15;;;;;;;19.52;2.88;;;1.40;99.90;;;;;;4995379;28;20038;-66
2023/02/06 00:06:42;;;;;;;22.15;3.35;;;1.40;99.90;;;;;;5014466;28;20034;-66
2023/02/06 00:09:08;;;;;;;28.02;3.60;;;1.30;99.90;;;;;;5013431;28;20033;-66
2023/02/06 00:11:34;;;;;;;21.13;3.70;;;1.30;99.90;;;;;;4996444;28;20038;-66
2023/02/06 00:14:00;;;;;;;20.77;3.70;;;1.40;99.90;;;;;;5014113;28;20140;-66
2023/02/06 00:16:31;;;;;;;30.15;5.05;;;1.40;99.90;;;;;;5014117;28;20371;-66
2023/02/06 00:18:58;;;;;;;20.70;3.67;;;1.40;99.90;;;;;;5013104;28;20038;-66
2023/02/06 00:21:25;;;;;;;29.02;4.18;;;1.40;99.90;;;;;;4979835;28;20148;-68
2023/02/06 00:23:53;;;;;;;28.83;4.63;;;1.50;99.90;;;;;;5013540;28;20045;-67
2023/02/06 00:26:19;;;;;;;19.70;3.28;;;1.50;99.90;;;;;;4992014;28;20064;-66
2023/02/06 00:28:46;;;;;;;19.33;3.25;;;1.60;99.90;;;;;;5013251;28;20048;-66
2023/02/06 00:31:12;;;;;;;21.55;3.47;;;1.60;99.90;;;;;;5012178;28;20038;-66
2023/02/06 00:33:38;;;;;;;27.75;2.80;;;1.60;99.90;;;;;;5012156;28;20041;-66
2023/02/06 00:36:04;;;;;;;18.52;2.80;;;1.70;99.90;;;;;;4991971;28;20042;-66
2023/02/06 00:38:30;;;;;;;12.38;3.15;;;1.70;99.90;;;;;;4993529;28;20049;-64
2023/02/06 00:40:56;;;;;;;20.73;3.00;;;1.80;99.90;;;;;;5011605;28;20099;-64
2023/02/06 00:43:22;;;;;;;16.45;2.92;;;1.70;99.90;;;;;;5011313;28;20034;-64
2023/02/06 00:45:52;;;;;;;15.05;2.30;;;1.80;99.90;;;;;;4993462;28;20351;-64
2023/02/06 00:48:18;;;;;;;18.50;2.92;;;1.80;99.90;;;;;;5011998;28;20130;-64
2023/02/06 00:50:44;;;;;;;16.63;3.17;;;1.80;99.90;;;;;;5010652;28;20132;-64
2023/02/06 00:53:10;;;;;;;22.45;3.17;;;1.80;99.90;;;;;;5010994;28;20379;-64
2023/02/06 00:55:35;;;;;;;22.60;3.33;;;1.80;99.90;;;;;;4993837;28;20042;-64
2023/02/06 00:58:01;;;;;;;20.95;4.13;;;1.80;99.90;;;;;;4994062;28;20099;-64
2023/02/06 01:00:27;;;;;;;26.92;4.18;;;1.80;99.90;;;;;;5011130;28;20179;-64
2023/02/06 01:02:52;;;;;;;26.30;4.03;;;1.80;99.90;;;;;;5010452;28;20030;-64
2023/02/06 01:05:18;;;;;;;25.05;4.03;;;1.90;99.90;;;;;;4993150;28;20528;-64
2023/02/06 01:07:44;;;;;;;23.10;3.75;;;1.90;99.90;;;;;;5011183;28;20072;-64
2023/02/06 01:10:11;;;;;;;25.40;3.92;;;1.90;99.90;;;;;;5010192;28;20041;-64
2023/02/06 01:12:36;;;;;;;31.30;3.67;;;2.00;99.90;;;;;;4994049;28;20640;-65
2023/02/06 01:15:06;;;;;;;25.55;3.45;;;2.00;99.90;;;;;;5011391;28;20045;-64
2023/02/06 01:17:33;;;;;;;20.83;3.35;;;2.00;99.90;;;;;;4984707;28;20489;-64
2023/02/06 01:19:58;;;;;;;23.92;3.88;;;2.00;99.90;;;;;;5010125;28;20474;-64
2023/02/06 01:22:24;;;;;;;26.85;3.92;;;2.10;99.90;;;;;;5011847;28;20135;-64
2023/02/06 01:24:50;;;;;;;26.55;3.58;;;2.10;99.90;;;;;;5011135;28;20080;-64
2023/02/06 01:27:15;;;;;;;31.05;4.18;;;2.10;99.90;;;;;;5011941;28;20088;-64
2023/02/06 01:29:42;;;;;;;24.08;3.72;;;2.10;99.90;;;;;;4992627;28;20607;-64
2023/02/06 01:32:08;;;;;;;24.83;3.78;;;2.10;99.90;;;;;;5011462;28;20042;-64
2023/02/06 01:34:34;;;;;;;18.40;3.47;;;2.10;99.90;;;;;;5010415;28;20042;-65
2023/02/06 01:37:00;;;;;;;18.98;3.50;;;2.10;99.90;;;;;;5011267;28;20049;-64
2023/02/06 01:39:25;;;;;;;26.05;3.35;;;2.10;99.90;;;;;;5009416;28;20030;-64
2023/02/06 01:41:51;;;;;;;24.55;3.80;;;2.10;99.90;;;;;;5008752;28;20390;-64
2023/02/06 01:44:21;;;;;;;23.17;4.38;;;2.10;99.90;;;;;;5011000;28;21177;-64
2023/02/06 01:46:53;;;;;;;24.00;4.05;;;2.10;99.90;;;;;;4994912;28;20038;-66
2023/02/06 01:49:32;;;;;;;22.52;3.70;;;2.20;99.90;;;;;;4994005;28;20050;-66
2023/02/06 01:52:18;;;;;;;27.13;3.85;;;2.10;99.90;;;;;;5012386;28;20034;-66
2023/02/06 01:54:49;;;;;;;29.88;4.93;;;2.10;99.90;;;;;;5010485;28;20120;-66
2023/02/06 01:57:17;;;;;;;27.05;4.20;;;2.10;99.90;;;;;;5012214;28;20493;-66
2023/02/06 01:59:48;;;;;;;26.83;3.90;;;2.30;99.90;;;;;;4977390;28;20050;-66
2023/02/06 02:02:13;;;;;;;26.58;3.78;;;2.20;99.90;;;;;;5010538;28;20113;-65
2023/02/06 02:04:39;;;;;;;29.33;4.53;;;2.20;99.90;;;;;;4990934;28;20141;-66
2023/02/06 02:07:26;;;;;;;28.13;4.40;;;2.30;99.90;;;;;;5012560;28;20041;-66
2023/02/06 02:09:52;;;;;;;34.33;4.07;;;2.30;99.90;;;;;;5008493;28;20037;-66
2023/02/06 02:12:19;;;;;;;22.33;4.03;;;2.30;99.90;;;;;;4993952;28;20081;-66
2023/02/06 02:14:47;;;;;;;29.70;4.75;;;2.40;99.90;;;;;;5009626;28;20042;-66
2023/02/06 02:17:31;;;;;;;32.00;4.55;;;2.40;99.90;;;;;;5010601;28;20038;-66
2023/02/06 02:20:14;;;;;;;37.88;4.80;;;2.40;99.90;;;;;;4992950;28;20315;-66
2023/02/06 02:23:12;;;;;;;29.33;3.58;;;2.40;99.90;;;;;;5010655;28;20054;-66
2023/02/06 02:25:59;;;;;;;25.48;4.15;;;2.40;99.90;;;;;;5006179;28;20050;-66
2023/02/06 02:28:44;;;;;;;35.95;4.75;;;2.40;99.90;;;;;;5009254;28;20084;-66
2023/02/06 02:31:15;;;;;;;27.20;4.00;;;2.40;99.90;;;;;;5009381;28;20083;-66
2023/02/06 02:34:15;;;;;;;31.83;3.90;;;2.40;99.90;;;;;;5009160;28;20045;-66
2023/02/06 02:37:41;;;;;;;33.95;5.35;;;2.40;99.90;;;;;;5001981;28;20039;-66
2023/02/06 02:40:16;;;;;;;39.23;4.97;;;2.40;99.90;;;;;;4964106;28;20039;-66
2023/02/06 02:42:53;;;;;;;28.73;4.00;;;2.40;99.90;;;;;;4984711;28;20301;-66
2023/02/06 02:45:37;;;;;;;39.28;4.45;;;2.50;99.90;;;;;;5005412;28;20049;-66
2023/02/06 02:48:14;;;;;;;33.95;4.25;;;2.30;99.90;;;;;;5008766;28;20500;-66
2023/02/06 02:50:40;;;;;;;24.65;4.20;;;2.30;99.90;;;;;;4993465;28;20056;-66
2023/02/06 02:53:07;;;;;;;28.75;4.05;;;2.30;99.90;;;;;;5011189;28;20386;-66
2023/02/06 02:55:33;;;;;;;32.05;4.43;;;2.30;99.90;;;;;;5011550;28;20084;-66
2023/02/06 02:58:16;;;;;;;29.88;4.97;;;2.30;99.90;;;;;;4992987;28;20037;-66
2023/02/06 03:00:47;;;;;;;27.80;3.83;;;2.20;99.90;;;;;;5009311;28;20061;-66
2023/02/06 03:03:16;;;;;;;26.85;3.58;;;2.10;99.90;;;;;;5007945;28;20049;-63
2023/02/06 03:06:16;;;;;;;29.88;4.40;;;2.10;99.90;;;;;;5009724;28;20092;-64
2023/02/06 03:09:06;;;;;;;27.55;4.07;;;2.00;99.90;;;;;;4990951;28;20069;-64
2023/02/06 03:11:32;;;;;;;30.50;4.50;;;2.00;99.90;;;;;;4991103;28;20063;-64
2023/02/06 03:14:17;;;;;;;31.08;4.15;;;2.00;99.90;;;;;;5009455;28;20062;-64
2023/02/06 03:16:48;;;;;;;24.50;4.68;;;2.00;99.90;;;;;;4992753;28;20076;-65
2023/02/06 03:19:19;;;;;;;29.33;3.58;;;1.90;99.90;;;;;;5007916;28;20034;-65
2023/02/06 03:21:47;;;;;;;31.85;4.03;;;2.00;99.90;;;;;;5011325;28;20226;-66
2023/02/06 03:24:25;;;;;;;31.08;4.30;;;1.90;99.90;;;;;;4992916;28;20437;-66
2023/02/06 03:26:57;;;;;;;24.55;3.72;;;1.90;99.90;;;;;;5012812;28;20050;-66
2023/02/06 03:29:24;;;;;;;27.15;3.83;;;1.90;99.90;;;;;;4995205;28;20069;-66
2023/02/06 03:32:22;;;;;;;27.88;3.60;;;1.90;99.90;;;;;;4997286;28;20060;-66
2023/02/06 03:35:11;;;;;;;28.80;3.83;;;1.90;99.90;;;;;;5013523;28;20046;-66
2023/02/06 03:37:37;;;;;;;25.20;4.03;;;1.90;99.90;;;;;;5012500;28;20065;-66
2023/02/06 03:40:05;;;;;;;25.33;3.42;;;1.90;99.90;;;;;;5013570;28;20034;-66
2023/02/06 03:42:34;;;;;;;36.22;4.28;;;1.90;99.90;;;;;;5011924;28;20056;-66
2023/02/06 03:45:13;;;;;;;29.58;3.88;;;1.90;99.90;;;;;;5013487;28;20045;-66
2023/02/06 03:47:42;;;;;;;18.08;3.13;;;1.90;99.90;;;;;;4996018;28;20116;-66
2023/02/06 03:50:09;;;;;;;26.25;4.00;;;1.90;99.90;;;;;;5014236;28;20037;-66
2023/02/06 03:52:39;;;;;;;22.05;3.35;;;1.90;99.90;;;;;;5014459;28;20116;-66
2023/02/06 03:55:25;;;;;;;24.30;3.20;;;2.00;99.90;;;;;;4996171;28;20041;-66
2023/02/06 03:58:07;;;;;;;26.27;4.07;;;1.90;99.90;;;;;;5011531;28;20044;-66
2023/02/06 04:00:35;;;;;;;21.15;3.40;;;2.00;99.90;;;;;;4996568;28;20037;-66
2023/02/06 04:03:01;;;;;;;32.58;3.90;;;2.00;99.90;;;;;;5013497;28;20042;-66
2023/02/06 04:05:27;;;;;;;27.45;4.90;;;2.00;99.90;;;;;;4994002;28;20045;-66
2023/02/06 04:07:55;;;;;;;20.73;3.42;;;2.00;99.90;;;;;;5014179;28;20148;-66
2023/02/06 04:10:21;;;;;;;31.55;4.05;;;2.00;99.90;;;;;;4979361;28;20057;-66
2023/02/06 04:12:47;;;;;;;35.42;4.00;;;2.00;99.90;;;;;;5014851;28;20153;-66
2023/02/06 04:15:13;;;;;;;35.63;4.10;;;2.00;99.90;;;;;;4995022;28;20410;-66
2023/02/06 04:17:38;;;;;;;24.20;4.28;;;2.00;99.90;;;;;;5014560;28;20065;-66
2023/02/06 04:20:05;;;;;;;29.27;4.03;;;2.00;99.90;;;;;;4996577;28;20119;-66
2023/02/06 04:22:31;;;;;;;32.22;3.47;;;2.00;99.90;;;;;;4996274;28;20034;-66
2023/02/06 04:24:57;;;;;;;32.00;3.97;;;2.00;99.90;;;;;;5012857;28;20077;-66
2023/02/06 04:27:24;;;;;;;28.70;3.63;;;2.00;99.90;;;;;;4996959;28;20441;-66
2023/02/06 04:29:50;;;;;;;27.73;3.90;;;1.90;99.90;;;;;;5014212;28;20042;-66
2023/02/06 04:32:16;;;;;;;20.33;3.53;;;1.90;99.90;;;;;;5014426;28;20120;-66
2023/02/06 04:34:41;;;;;;;22.15;3.75;;;1.90;99.90;;;;;;4994213;28;20037;-66
2023/02/06 04:37:07;;;;;;;24.48;3.63;;;1.90;99.90;;;;;;5012481;28;20120;-66
2023/02/06 04:39:33;;;;;;;21.33;3.35;;;2.00;99.90;;;;;;5013967;28;20033;-66
2023/02/06 04:41:59;;;;;;;28.48;3.72;;;1.90;99.90;;;;;;5013639;28;20038;-66
2023/02/06 04:44:25;;;;;;;29.95;3.60;;;1.90;99.90;;;;;;5014460;28;20537;-66
2023/02/06 04:46:50;;;;;;;23.20;3.42;;;1.90;99.90;;;;;;4995329;28;20110;-66
2023/02/06 04:49:16;;;;;;;32.67;3.78;;;2.00;99.90;;;;;;5013874;28;20541;-66
2023/02/06 04:51:42;;;;;;;31.90;3.72;;;2.00;99.90;;;;;;5012445;28;20128;-64
2023/02/06 04:54:13;;;;;;;29.73;3.83;;;1.90;99.90;;;;;;5011625;28;20481;-65
2023/02/06 04:56:38;;;;;;;22.17;4.10;;;2.00;99.90;;;;;;5010211;28;20081;-64
2023/02/06 04:59:04;;;;;;;35.67;3.97;;;2.00;99.90;;;;;;5011885;28;20438;-65
2023/02/06 05:01:30;;;;;;;34.20;4.05;;;2.00;99.90;;;;;;5009259;28;20597;-64
2023/02/06 05:03:56;;;;;;;28.73;3.85;;;2.00;99.90;;;;;;5010759;28;20064;-64
2023/02/06 05:06:21;;;;;;;35.40;3.65;;;2.00;99.90;;;;;;4988707;28;20049;-64
2023/02/06 05:08:47;;;;;;;26.65;3.03;;;2.00;99.90;;;;;;4985628;28;20042;-64
2023/02/06 05:11:13;;;;;;;22.20;3.33;;;2.10;99.90;;;;;;5010434;28;20038;-64
2023/02/06 05:13:38;;;;;;;28.35;4.70;;;2.00;99.90;;;;;;5010632;28;20118;-64
2023/02/06 05:16:10;;;;;;;26.20;3.50;;;2.10;99.90;;;;;;5008335;28;20038;-65
2023/02/06 05:18:36;;;;;;;27.67;3.67;;;2.10;99.90;;;;;;5010449;28;20037;-64
2023/02/06 05:21:02;;;;;;;25.70;4.32;;;2.10;99.90;;;;;;5010990;28;20470;-64
2023/02/06 05:23:28;;;;;;;29.02;3.90;;;2.10;99.90;;;;;;4992324;28;20077;-64
2023/02/06 05:25:54;;;;;;;26.33;3.95;;;2.10;99.90;;;;;;5011708;28;20096;-64
2023/02/06 05:28:20;;;;;;;29.98;3.90;;;2.20;99.90;;;;;;5010433;28;20508;-64
2023/02/06 05:30:45;;;;;;;24.92;3.92;;;2.10;99.90;;;;;;5010127;28;20911;-64
2023/02/06 05:33:11;;;;;;;30.20;4.05;;;2.10;99.90;;;;;;5009251;28;20038;-64
2023/02/06 05:35:38;;;;;;;28.58;3.83;;;2.20;99.90;;;;;;5010806;28;20034;-65
2023/02/06 05:38:04;;;;;;;33.33;3.72;;;2.20;99.90;;;;;;4992914;28;20042;-64
2023/02/06 05:40:30;;;;;;;28.40;3.53;;;2.20;99.90;;;;;;5010021;28;20147;-64
2023/02/06 05:42:55;;;;;;;31.13;3.67;;;2.10;99.90;;;;;;5010212;28;20046;-64
2023/02/06 05:45:22;;;;;;;23.63;3.78;;;2.20;99.90;;;;;;4993258;28;20072;-64
2023/02/06 05:47:48;;;;;;;34.30;4.47;;;2.20;99.90;;;;;;4992376;28;20398;-64
2023/02/06 05:50:14;;;;;;;39.92;4.82;;;2.20;99.90;;;;;;5010260;28;20053;-63
2023/02/06 05:52:40;;;;;;;27.77;3.88;;;2.20;99.90;;;;;;5009187;28;20053;-64
2023/02/06 05:55:06;;;;;;;20.13;3.17;;;2.30;99.90;;;;;;5010855;28;20053;-64
2023/02/06 05:57:32;;;;;;;29.08;4.15;;;2.30;99.90;;;;;;4991809;28;20060;-65
2023/02/06 05:59:58;;;;;;;30.95;3.63;;;2.30;99.90;;;;;;4987076;28;20045;-64
2023/02/06 06:02:24;;;;;;;32.55;4.13;;;2.30;99.90;;;;;;5002846;28;20096;-64
2023/02/06 06:04:49;;;;;;;22.88;3.78;;;2.30;99.90;;;;;;5007525;28;20046;-64
2023/02/06 06:07:15;;;;;;;28.02;3.95;;;2.30;99.90;;;;;;4989599;28;20395;-64
2023/02/06 06:09:41;;;;;;;28.67;3.60;;;2.30;99.90;;;;;;5007787;28;20052;-65
2023/02/06 06:12:07;;;;;;;37.38;4.88;;;2.30;99.90;;;;;;5009402;28;20041;-64
2023/02/06 06:14:32;;;;;;;24.85;4.10;;;2.30;99.90;;;;;;5009286;28;20077;-64
2023/02/06 06:16:58;;;;;;;26.17;4.05;;;2.30;99.90;;;;;;5007365;28;20162;-65
2023/02/06 06:19:24;;;;;;;25.55;4.07;;;2.30;99.90;;;;;;5007870;28;20038;-64
2023/02/06 06:21:49;;;;;;;43.15;4.68;;;2.40;99.90;;;;;;5008531;28;20045;-64
2023/02/06 06:24:15;;;;;;;29.70;4.38;;;2.40;99.90;;;;;;5006815;28;20042;-64
2023/02/06 06:26:41;;;;;;;46.70;5.10;;;2.40;99.90;;;;;;5008806;28;20123;-65
2023/02/06 06:29:06;;;;;;;34.75;4.47;;;2.40;99.90;;;;;;5009419;28;20057;-63
2023/02/06 06:31:32;;;;;;;26.95;4.10;;;2.40;99.90;;;;;;5009549;28;20085;-64
2023/02/06 06:33:58;;;;;;;26.40;3.83;;;2.40;99.90;;;;;;4991882;28;20129;-64
2023/02/06 06:36:23;;;;;;;35.80;4.32;;;2.40;99.90;;;;;;5009466;28;20045;-64
2023/02/06 06:38:49;;;;;;;32.75;4.30;;;2.50;99.90;;;;;;5005049;28;20448;-65
2023/02/06 06:41:15;;;;;;;35.47;5.03;;;2.50;99.90;;;;;;5006127;28;20038;-65
2023/02/06 06:43:41;;;;;;;26.58;3.92;;;2.50;99.90;;;;;;5008910;28;20100;-65
2023/02/06 06:46:07;;;;;;;26.77;4.15;;;2.50;99.90;;;;;;5008892;28;20631;-66
2023/02/06 06:48:35;;;;;;;39.50;4.45;;;2.60;99.90;;;;;;5007301;28;20046;-66
2023/02/06 06:51:01;;;;;;;35.78;4.07;;;2.60;99.90;;;;;;4989982;28;20133;-66
2023/02/06 06:53:26;;;;;;;27.50;4.40;;;2.50;99.90;;;;;;4989490;28;20184;-66
2023/02/06 06:55:52;;;;;;;25.52;4.18;;;2.50;99.90;;;;;;4989524;28;20038;-66
2023/02/06 06:58:18;;;;;;;28.88;4.07;;;2.50;99.90;;;;;;5006937;28;20483;-65
2023/02/06 07:00:44;;;;;;;28.88;3.67;;;2.50;99.90;;;;;;5007189;28;20034;-64
2023/02/06 07:03:10;;;;;;;27.15;4.20;;;2.50;99.90;;;;;;5009207;28;20081;-64
2023/02/06 07:05:37;;;;;;;32.10;4.68;;;2.60;99.90;;;;;;5009744;28;20474;-64
2023/02/06 07:08:03;;;;;;;29.08;3.80;;;2.60;99.90;;;;;;5010886;28;20049;-65
2023/02/06 07:10:29;;;;;;;28.85;4.00;;;2.60;99.90;;;;;;5011843;28;20045;-65
2023/02/06 07:12:55;;;;;;;26.30;3.95;;;2.60;99.90;;;;;;5010850;28;20083;-64
2023/02/06 07:15:22;;;;;;;22.88;3.45;;;2.70;99.90;;;;;;4994698;28;20096;-64
2023/02/06 07:17:48;;;;;;;32.10;4.22;;;2.60;99.90;;;;;;5014081;28;20743;-63
2023/02/06 07:20:14;;;;;;;27.17;4.47;;;2.70;99.90;;;;;;5013210;28;20037;-64
2023/02/06 07:22:39;;;;;;;28.15;4.28;;;2.70;99.90;;;;;;5013687;28;20038;-65
2023/02/06 07:25:05;;;;;;;30.25;4.22;;;2.70;99.90;;;;;;5013429;28;20048;-65
2023/02/06 07:27:31;;;;;;;48.30;4.65;;;2.70;99.90;;;;;;5013734;28;20040;-63
2023/02/06 07:30:00;;;;;;;29.95;4.47;;;2.70;99.90;;;;;;5013591;28;20104;-64
2023/02/06 07:32:26;;;;;;;32.25;5.05;;;2.70;99.90;;;;;;4979393;28;20067;-64
2023/02/06 07:34:51;;;;;;;23.38;3.95;;;2.70;99.90;;;;;;5013120;28;20129;-63
2023/02/06 07:37:17;;;;;;;31.42;4.18;;;2.70;99.90;;;;;;4995899;28;20179;-64
2023/02/06 07:39:43;;;;;;;34.80;4.05;;;2.80;99.90;;;;;;5012635;28;20046;-64
2023/02/06 07:42:10;;;;;;;34.33;4.60;;;2.80;99.90;;;;;;5013167;28;20058;-66
2023/02/06 07:44:36;;;;;;;28.23;3.60;;;2.80;99.90;;;;;;4994956;28;20072;-66
2023/02/06 07:47:02;;;;;;;39.80;4.28;;;2.80;99.90;;;;;;5009118;28;20137;-66
2023/02/06 07:49:28;;;;;;;28.10;4.70;;;2.80;99.90;;;;;;5009670;28;20077;-66
2023/02/06 07:51:54;;;;;;;33.40;4.68;;;2.80;99.90;;;;;;5011591;28;20045;-66
2023/02/06 07:54:19;;;;;;;32.72;4.72;;;2.90;99.90;;;;;;5011279;28;20106;-66
2023/02/06 07:56:45;;;;;;;36.72;3.78;;;2.90;99.90;;;;;;5011984;28;20145;-66
2023/02/06 07:59:11;;;;;;;29.90;5.13;;;2.90;99.90;;;;;;5010319;28;20100;-66
2023/02/06 08:01:37;;;;;;;32.20;5.47;;;3.00;99.90;;;;;;5009892;28;20034;-66
2023/02/06 08:04:02;;;;;;;27.77;4.90;;;3.00;99.90;;;;;;5010963;28;20061;-66
2023/02/06 08:06:28;;;;;;;36.25;4.85;;;3.00;99.90;;;;;;5010783;28;20117;-66
2023/02/06 08:08:55;;;;;;;37.53;5.20;;;3.10;99.90;;;;;;5007794;28;20038;-66
2023/02/06 08:11:24;;;;;;;33.58;4.65;;;3.10;99.90;;;;;;4993886;28;20474;-66
2023/02/06 08:13:50;;;;;;;34.85;5.57;;;3.10;99.90;;;;;;5010652;28;20041;-66
2023/02/06 08:16:18;;;;;;;31.02;3.90;;;3.20;99.90;;;;;;4994616;28;20042;-66
2023/02/06 08:18:45;;;;;;;29.02;4.40;;;3.20;99.90;;;;;;5012023;28;20042;-66
2023/02/06 08:21:13;;;;;;;31.42;4.63;;;3.30;99.90;;;;;;5012223;28;20048;-66
2023/02/06 08:23:40;;;;;;;27.45;4.13;;;3.30;99.90;;;;;;5010438;28;20044;-66
2023/02/06 08:26:09;;;;;;;22.23;4.85;;;3.40;99.90;;;;;;5012324;28;20472;-66
2023/02/06 08:28:36;;;;;;;29.73;4.70;;;3.40;99.90;;;;;;4993311;28;20473;-66
2023/02/06 08:31:14;;;;;;;38.13;4.40;;;3.50;99.90;;;;;;5012011;28;20046;-66
2023/02/06 08:33:40;;;;;;;36.75;5.03;;;3.50;99.90;;;;;;5010921;28;20046;-66
2023/02/06 08:36:07;;;;;;;29.40;5.32;;;3.60;99.90;;;;;;5011855;28;20397;-66
2023/02/06 08:38:33;;;;;;;21.52;4.28;;;3.60;99.90;;;;;;4993915;28;20048;-66
2023/02/06 08:40:59;;;;;;;31.02;5.00;;;3.70;99.90;;;;;;5011715;28;20037;-66
2023/02/06 08:43:24;;;;;;;33.47;5.10;;;3.80;99.90;;;;;;5011362;28;20116;-66
2023/02/06 08:45:51;;;;;;;30.10;4.25;;;3.90;99.90;;;;;;5011142;28;20044;-65
2023/02/06 08:48:17;;;;;;;29.42;4.82;;;4.00;99.90;;;;;;5010073;28;20113;-65
2023/02/06 08:50:44;;;;;;;32.00;4.60;;;4.00;99.90;;;;;;5011043;28;20038;-66
2023/02/06 08:53:10;;;;;;;22.73;3.95;;;4.10;99.90;;;;;;5010573;28;20060;-66
2023/02/06 08:55:36;;;;;;;31.30;4.18;;;4.20;99.90;;;;;;5010796;28;20132;-64
2023/02/06 08:58:02;;;;;;;31.77;4.93;;;4.30;99.90;;;;;;5014888;28;20117;-65
2023/02/06 09:00:28;;;;;;;31.20;4.07;;;4.50;99.90;;;;;;5010922;28;20045;-66
2023/02/06 09:02:54;;;;;;;31.38;4.65;;;4.60;99.90;;;;;;5009469;28;20034;-64
2023/02/06 09:05:21;;;;;;;37.10;5.50;;;4.70;99.90;;;;;;4993118;28;20486;-65
2023/02/06 09:07:47;;;;;;;28.98;5.00;;;4.90;99.90;;;;;;4991714;28;20320;-65
2023/02/06 09:10:14;;;;;;;34.50;4.63;;;5.00;99.90;;;;;;5010046;28;20034;-65
2023/02/06 09:12:39;;;;;;;26.52;4.43;;;5.10;99.90;;;;;;5010998;28;20042;-65
2023/02/06 09:15:06;;;;;;;42.72;4.32;;;5.20;99.90;;;;;;5009838;28;20057;-65
2023/02/06 09:17:32;;;;;;;36.22;4.70;;;5.30;99.90;;;;;;5004890;28;20034;-65
2023/02/06 09:19:59;;;;;;;33.22;4.43;;;5.30;99.90;;;;;;5010507;28;20041;-65
2023/02/06 09:22:26;;;;;;;28.80;5.53;;;5.40;99.90;;;;;;5006713;28;20034;-65
2023/02/06 09:24:52;;;;;;;31.70;4.53;;;5.40;99.90;;;;;;5011642;28;20133;-65
2023/02/06 09:27:18;;;;;;;37.83;4.43;;;5.40;99.90;;;;;;5011633;28;20036;-65
2023/02/06 09:29:45;;;;;;;36.45;4.75;;;5.40;99.90;;;;;;5011051;28;20458;-65
2023/02/06 09:32:12;;;;;;;26.42;4.07;;;5.40;99.90;;;;;;4993746;28;20068;-65
2023/02/06 09:34:37;;;;;;;25.40;4.47;;;5.50;99.90;;;;;;5011404;28;20037;-65
2023/02/06 09:37:04;;;;;;;30.90;4.20;;;5.40;99.90;;;;;;4993956;28;20382;-65
2023/02/06 09:39:31;;;;;;;29.67;3.92;;;5.50;99.90;;;;;;4997855;28;20100;-65
2023/02/06 09:42:06;;;;;;;27.90;4.57;;;5.50;99.90;;;;;;5009404;28;20054;-66
2023/02/06 09:44:47;;;;;;;38.22;5.22;;;5.60;99.90;;;;;;5010468;28;20111;-65
2023/02/06 09:47:23;;;;;;;34.15;4.53;;;5.80;99.90;;;;;;5011508;28;20034;-65
2023/02/06 09:49:57;;;;;;;29.98;3.63;;;5.80;99.90;;;;;;4990843;28;20041;-65
2023/02/06 09:52:48;;;;;;;28.50;4.53;;;6.00;99.90;;;;;;5011855;28;20371;-65
2023/02/06 09:55:32;;;;;;;36.75;5.00;;;6.00;99.90;;;;;;5011225;28;20042;-65
2023/02/06 09:58:28;;;;;;;43.25;5.68;;;6.10;99.90;;;;;;5009431;28;20041;-65
2023/02/06 10:01:24;;;;;;;36.70;4.63;;;6.10;99.90;;;;;;5009432;28;20091;-65
2023/02/06 10:04:17;;;;;;;30.23;4.90;;;6.20;99.90;;;;;;5008568;28;20077;-65
2023/02/06 10:07:00;;;;;;;39.08;5.53;;;6.20;99.90;;;;;;5011403;28;20041;-65
2023/02/06 10:09:47;;;;;;;34.88;5.00;;;6.20;99.90;;;;;;5009734;28;20042;-64
2023/02/06 10:12:36;;;;;;;32.85;5.72;;;6.30;99.90;;;;;;5011120;28;20042;-65
2023/02/06 10:15:11;;;;;;;44.63;5.88;;;6.30;99.90;;;;;;5009793;28;20121;-65
2023/02/06 10:17:52;;;;;;;31.48;5.05;;;6.40;99.90;;;;;;5010922;28;20037;-65
2023/02/06 10:20:28;;;;;;;32.08;5.10;;;6.50;99.90;;;;;;5010618;28;20124;-65
2023/02/06 10:23:05;;;;;;;38.42;5.20;;;6.70;99.90;;;;;;5009621;28;20056;-65
2023/02/06 10:25:35;;;;;;;36.47;5.18;;;6.80;99.90;;;;;;5011078;28;20053;-65
2023/02/06 10:28:24;;;;;;;42.60;5.65;;;7.00;99.90;;;;;;5010821;28;20345;-64
2023/02/06 10:31:13;;;;;;;35.28;6.90;;;7.20;99.90;;;;;;5011486;28;20068;-65
2023/02/06 10:34:03;;;;;;;30.92;4.95;;;7.20;99.90;;;;;;5010834;28;20065;-65
2023/02/06 10:36:57;;;;;;;35.47;5.75;;;7.10;99.90;;;;;;4996600;28;20049;-65
2023/02/06 10:39:28;;;;;;;39.22;5.85;;;7.00;99.90;;;;;;5013205;28;20077;-64
2023/02/06 10:42:31;;;;;;;37.50;5.97;;;6.90;99.90;;;;;;5012470;28;20387;-64
2023/02/06 10:45:15;;;;;;;31.30;6.05;;;7.00;99.90;;;;;;5014620;28;20049;-65
2023/02/06 10:48:14;;;;;;;28.33;5.68;;;7.30;99.90;;;;;;5013290;28;20089;-64
2023/02/06 10:50:50;;;;;;;33.97;6.05;;;7.60;99.90;;;;;;5010733;28;20049;-64
2023/02/06 10:53:27;;;;;;;27.55;5.25;;;7.70;99.90;;;;;;5013599;28;20077;-64
2023/02/06 10:56:03;;;;;;;30.23;5.82;;;7.80;99.90;;;;;;5014086;28;20429;-64
2023/02/06 10:58:41;;;;;;;37.47;6.82;;;7.70;99.90;;;;;;5003373;28;20038;-64
2023/02/06 11:01:10;;;;;;;40.13;6.05;;;7.70;99.90;;;;;;5013192;28;20041;-64
2023/02/06 11:03:44;;;;;;;26.35;5.70;;;7.70;99.90;;;;;;5012756;28;20054;-64
2023/02/06 11:06:14;;;;;;;32.72;5.80;;;7.90;99.90;;;;;;5013719;28;20470;-65
2023/02/06 11:08:43;;;;;;;24.35;4.95;;;8.00;99.90;;;;;;5011763;28;20057;-65
2023/02/06 11:11:22;;;;;;;34.63;6.18;;;8.00;99.90;;;;;;4996423;28;20414;-64
2023/02/06 11:13:55;;;;;;;30.70;6.15;;;8.00;99.90;;;;;;5011339;28;20422;-64
2023/02/06 11:16:26;;;;;;;25.80;5.53;;;7.90;99.90;;;;;;4995825;28;20133;-64
2023/02/06 11:18:55;;;;;;;29.02;5.63;;;8.00;99.90;;;;;;5013196;28;20046;-64
2023/02/06 11:21:49;;;;;;;32.05;5.75;;;8.10;99.90;;;;;;5013571;28;20042;-64
2023/02/06 11:24:18;;;;;;;31.42;4.97;;;8.30;99.90;;;;;;4993965;28;20073;-65
2023/02/06 11:26:57;;;;;;;29.45;5.13;;;8.30;99.90;;;;;;5012670;28;20060;-64
2023/02/06 11:29:31;;;;;;;26.52;4.20;;;8.20;99.90;;;;;;5012911;28;20088;-64
2023/02/06 11:32:03;;;;;;;32.67;5.47;;;8.20;99.90;;;;;;5014164;28;20037;-64
2023/02/06 11:34:52;;;;;;;24.42;4.50;;;8.20;99.90;;;;;;5012827;28;20671;-64
2023/02/06 11:37:50;;;;;;;23.98;3.72;;;8.30;99.90;;;;;;5013366;28;20132;-64
2023/02/06 11:40:16;;;;;;;23.90;3.95;;;8.30;99.90;;;;;;5003616;28;20041;-64
2023/02/06 11:42:43;;;;;;;22.77;4.30;;;8.30;99.90;;;;;;5013299;28;20173;-66
2023/02/06 11:45:28;;;;;;;24.25;4.15;;;8.40;99.90;;;;;;5011099;28;20049;-64
2023/02/06 11:47:54;;;;;;;;;;;8.40;99.90;;;;;;5013729;28;20041;-65
2023/02/06 11:50:35;;;;;;;19.75;4.20;;;8.30;99.90;;;;;;5012001;28;20384;-65
2023/02/06 11:53:08;;;;;;;21.30;3.90;;;8.30;99.90;;;;;;5012330;28;20065;-65
2023/02/06 11:55:39;;;;;;;23.00;3.88;;;8.30;99.90;;;;;;5012083;28;20044;-65
2023/02/06 11:58:11;;;;;;;27.25;4.30;;;8.10;99.90;;;;;;4994636;28;20077;-64
2023/02/06 12:00:54;;;;;;;20.52;3.33;;;8.10;99.90;;;;;;5012522;28;20033;-64
2023/02/06 12:03:32;;;;;;;21.42;3.92;;;8.10;99.90;;;;;;5012122;28;20038;-65
2023/02/06 12:06:19;;;;;;;17.98;3.08;;;8.00;99.90;;;;;;5011619;28;20351;-64
2023/02/06 12:08:48;;;;;;;20.17;3.25;;;7.90;99.90;;;;;;5010548;28;20049;-64
2023/02/06 12:11:36;;;;;;;19.08;2.80;;;8.00;99.90;;;;;;4994384;28;20042;-65
2023/02/06 12:14:19;;;;;;;20.65;3.10;;;8.10;99.90;;;;;;5011542;28;20136;-64
2023/02/06 12:16:46;;;;;;;16.52;3.30;;;8.10;99.90;;;;;;5010662;28;20104;-64
2023/02/06 12:19:20;;;;;;;20.83;3.50;;;8.20;99.90;;;;;;5011732;28;20451;-65
2023/02/06 12:21:50;;;;;;;18.75;3.13;;;8.20;99.90;;;;;;5011370;28;20049;-64
2023/02/06 12:24:31;;;;;;;20.38;4.18;;;8.10;99.90;;;;;;4992795;28;20046;-64
2023/02/06 12:27:00;;;;;;;15.13;3.25;;;8.00;99.90;;;;;;5011797;28;20045;-64
2023/02/06 12:29:33;;;;;;;18.33;3.13;;;8.10;99.90;;;;;;5012297;28;20046;-65
2023/02/06 12:32:13;;;;;;;16.00;2.72;;;8.10;99.90;;;;;;5011411;28;20045;-65
2023/02/06 12:34:52;;;;;;;21.27;3.38;;;8.10;99.90;;;;;;5010328;28;20041;-64
2023/02/06 12:37:38;;;;;;;16.75;3.00;;;8.10;99.90;;;;;;5010628;28;20092;-64
2023/02/06 12:40:18;;;;;;;17.45;3.15;;;8.20;99.90;;;;;;5008833;28;20025;-65
2023/02/06 12:42:56;;;;;;;15.50;2.63;;;8.20;99.90;;;;;;5011363;28;20041;-64
2023/02/06 12:45:41;;;;;;;15.45;2.92;;;8.30;99.90;;;;;;5011103;28;20049;-65
2023/02/06 12:48:24;;;;;;;17.10;2.33;;;8.50;99.90;;;;;;5010557;28;20474;-64
2023/02/06 12:51:02;;;;;;;20.20;2.95;;;8.60;99.90;;;;;;5010978;28;20520;-64
2023/02/06 12:53:44;;;;;;;16.25;2.38;;;8.70;99.90;;;;;;4993231;28;20041;-64
2023/02/06 12:56:25;;;;;;;17.92;2.63;;;8.70;99.90;;;;;;5009886;28;20053;-65
2023/02/06 12:59:20;;;;;;;15.77;1.80;;;8.70;99.90;;;;;;5010557;28;20117;-64
2023/02/06 13:02:00;;;;;;;19.23;2.95;;;8.60;99.90;;;;;;5009437;28;20107;-64
2023/02/06 13:04:32;;;;;;;11.07;2.00;;;8.50;99.90;;;;;;5009526;28;20034;-64
2023/02/06 13:07:12;;;;;;;17.58;2.58;;;8.40;99.90;;;;;;5008960;28;20493;-64
2023/02/06 13:09:47;;;;;;;15.57;3.00;;;8.30;99.90;;;;;;5010555;28;20390;-64